Ibitinga, Brazil
Current Conditions -  °F | °C
As of 6:00 PM on Thursday 23 Oct 2014 (Local Time) from SBBU Reporting Station
Clear Clear  
Wind Chill: 91°   Ceiling: Unl
Heat Index: 95°   Visibility: 6mi
Dew Point: 68°   Wind: 1mph
Humidity: 46%   Direction: 160°SSE
Pressure: 29.91"   Gusts: NA
Location:  21.76°S, 48.83°W
Report Text: SBBU 232000Z 16001KT CAVOK 33/20 Q1013
Loading
Personal Weather Stations






























Interactive Weather Map
Tropical Storm Tracking
New forecast layout! Learn more

10-Day Weather Forecast

Advertisements
Track Severe Weather on mobile